createdAt,value
2018-03-26T00:00:42.127Z,2.83
2018-03-26T00:01:42.104Z,2.83
2018-03-26T00:02:41.836Z,2.78
2018-03-26T00:03:41.560Z,2.83
2018-03-26T00:04:42.058Z,2.8
2018-03-26T00:05:42.041Z,2.73
2018-03-26T00:06:42.025Z,2.7
2018-03-26T00:07:42.014Z,2.77
2018-03-26T00:08:42.003Z,2.73
2018-03-26T00:09:41.997Z,2.73
2018-03-26T00:10:41.708Z,2.8
2018-03-26T00:11:41.698Z,2.84
2018-03-26T00:12:41.930Z,2.84
2018-03-26T00:13:41.921Z,2.81
2018-03-26T00:14:41.903Z,2.77
2018-03-26T00:15:41.883Z,2.84
2018-03-26T00:16:41.872Z,2.84
2018-03-26T00:17:41.597Z,2.84
2018-03-26T00:18:41.577Z,2.8
2018-03-26T00:19:41.822Z,2.83
2018-03-26T00:20:41.601Z,2.78
2018-03-26T00:21:41.783Z,2.81
2018-03-26T00:22:41.515Z,2.78
2018-03-26T00:23:41.761Z,2.84
2018-03-26T00:24:41.742Z,2.8
2018-03-26T00:25:41.728Z,2.9
2018-03-26T00:26:41.716Z,2.83
2018-03-26T00:27:41.442Z,2.8
2018-03-26T00:28:41.165Z,2.84
2018-03-26T00:29:41.420Z,2.87
2018-03-26T00:30:41.389Z,2.8
2018-03-26T00:31:41.372Z,2.77
2018-03-26T00:32:41.619Z,2.84
2018-03-26T00:33:41.342Z,2.85
2018-03-26T00:34:41.119Z,2.87
2018-03-26T00:35:41.570Z,2.93
2018-03-26T00:36:41.551Z,2.91
2018-03-26T00:37:41.280Z,2.85
2018-03-26T00:38:41.260Z,2.87
2018-03-26T00:39:41.501Z,2.85
2018-03-26T00:40:41.481Z,2.77
2018-03-26T00:41:41.467Z,2.78
2018-03-26T00:42:41.455Z,2.84
2018-03-26T00:43:41.301Z,2.87
2018-03-26T00:44:41.165Z,2.83
2018-03-26T00:45:41.149Z,2.85
2018-03-26T00:46:41.128Z,2.83
2018-03-26T00:47:41.383Z,2.81
2018-03-26T00:48:40.845Z,2.77
2018-03-26T00:49:41.347Z,2.77
2018-03-26T00:50:41.073Z,2.85
2018-03-26T00:51:40.798Z,2.84
2018-03-26T00:52:40.786Z,2.88
2018-03-26T00:53:41.279Z,2.84
2018-03-26T00:54:41.262Z,2.78
2018-03-26T00:55:40.990Z,2.8
2018-03-26T00:56:40.978Z,2.87
2018-03-26T00:57:41.218Z,2.9
2018-03-26T00:58:41.201Z,2.83
2018-03-26T00:59:40.932Z,2.81
2018-03-26T01:00:41.170Z,2.81
2018-03-26T01:01:41.151Z,2.81
2018-03-26T01:02:41.133Z,2.81
2018-03-26T01:03:41.123Z,2.83
2018-03-26T01:04:41.104Z,2.8
2018-03-26T01:05:40.572Z,2.85
2018-03-26T01:06:41.078Z,2.78
2018-03-26T01:07:40.796Z,2.8
2018-03-26T01:08:40.787Z,2.8
2018-03-26T01:09:40.766Z,2.84
2018-03-26T01:10:41.011Z,2.85
2018-03-26T01:11:40.991Z,2.85
2018-03-26T01:12:40.978Z,2.81
2018-03-26T01:13:40.700Z,2.9
2018-03-26T01:14:40.936Z,2.88
2018-03-26T01:15:40.939Z,2.9
2018-03-26T01:16:40.652Z,2.93
2018-03-26T01:17:40.642Z,2.95
2018-03-26T01:18:40.874Z,2.91
2018-03-26T01:19:40.604Z,2.87
2018-03-26T01:20:40.848Z,3.01
2018-03-26T01:21:40.317Z,2.93
2018-03-26T01:22:40.302Z,2.95
2018-03-26T01:23:40.801Z,3.03
2018-03-26T01:24:40.535Z,3.03
2018-03-26T01:25:40.771Z,3.03
2018-03-26T01:26:40.493Z,3.09
2018-03-26T01:27:40.479Z,2.91
2018-03-26T01:28:40.471Z,2.93
2018-03-26T01:29:40.191Z,2.93
2018-03-26T01:30:40.429Z,3.01
2018-03-26T01:31:40.417Z,2.96
2018-03-26T01:32:40.652Z,2.95
2018-03-26T01:33:40.387Z,2.96
2018-03-26T01:34:40.114Z,2.9
2018-03-26T01:35:40.359Z,2.9
2018-03-26T01:36:40.080Z,2.96
2018-03-26T01:37:40.582Z,2.9
2018-03-26T01:38:40.568Z,2.91
2018-03-26T01:39:40.292Z,2.9
2018-03-26T01:40:40.280Z,2.85
2018-03-26T01:41:40.002Z,2.81
2018-03-26T01:42:40.241Z,2.83
2018-03-26T01:43:40.487Z,2.88
2018-03-26T01:44:40.471Z,2.85
2018-03-26T01:45:40.453Z,2.87
2018-03-26T01:46:39.923Z,2.83
2018-03-26T01:47:40.422Z,2.87
2018-03-26T01:48:40.146Z,2.8
2018-03-26T01:49:40.128Z,2.83
2018-03-26T01:50:40.373Z,2.83
2018-03-26T01:51:40.095Z,2.76
2018-03-26T01:52:40.085Z,2.84
2018-03-26T01:53:40.318Z,2.78
2018-03-26T01:54:40.054Z,2.77
2018-03-26T01:55:40.296Z,2.78
2018-03-26T01:56:40.280Z,2.78
2018-03-26T01:57:39.745Z,2.8
2018-03-26T01:58:40.248Z,2.76
2018-03-26T01:59:40.223Z,2.8
2018-03-26T02:00:40.214Z,2.73
2018-03-26T02:01:40.196Z,2.81
2018-03-26T02:02:40.238Z,2.78
2018-03-26T02:03:40.162Z,2.77
2018-03-26T02:04:40.194Z,2.76
2018-03-26T02:05:40.134Z,2.8
2018-03-26T02:06:40.113Z,2.8
2018-03-26T02:07:39.851Z,2.69
2018-03-26T02:08:40.081Z,2.8
2018-03-26T02:09:40.076Z,2.8
2018-03-26T02:10:39.802Z,2.8
2018-03-26T02:11:39.779Z,2.77
2018-03-26T02:12:39.506Z,2.72
2018-03-26T02:13:39.752Z,2.76
2018-03-26T02:14:39.732Z,2.78
2018-03-26T02:15:39.977Z,2.73
2018-03-26T02:16:39.706Z,2.81
2018-03-26T02:17:39.953Z,2.77
2018-03-26T02:18:39.921Z,2.84
2018-03-26T02:19:39.906Z,2.8
2018-03-26T02:20:39.889Z,2.78
2018-03-26T02:21:39.885Z,2.76
2018-03-26T02:22:39.863Z,2.8
2018-03-26T02:23:39.588Z,2.8
2018-03-26T02:24:39.829Z,2.76
2018-03-26T02:25:39.556Z,2.73
2018-03-26T02:26:39.937Z,2.73
2018-03-26T02:27:39.788Z,2.8
2018-03-26T02:28:39.762Z,2.7
2018-03-26T02:29:39.490Z,2.76
2018-03-26T02:30:39.735Z,2.78
2018-03-26T02:31:39.467Z,2.83
2018-03-26T02:32:39.459Z,2.81
2018-03-26T02:33:39.433Z,2.83
2018-03-26T02:34:39.681Z,2.81
2018-03-26T02:35:39.656Z,2.81
2018-03-26T02:36:39.644Z,2.87
2018-03-26T02:37:39.640Z,2.91
2018-03-26T02:38:39.621Z,2.93
2018-03-26T02:39:39.333Z,2.81
2018-03-26T02:40:39.580Z,2.88
2018-03-26T02:41:39.307Z,2.78
2018-03-26T02:42:39.556Z,2.8
2018-03-26T02:43:39.524Z,2.78
2018-03-26T02:44:39.515Z,2.8
2018-03-26T02:45:39.240Z,2.85
2018-03-26T02:46:39.490Z,2.8
2018-03-26T02:47:39.479Z,2.87
2018-03-26T02:48:39.451Z,2.85
2018-03-26T02:49:39.174Z,2.83
2018-03-26T02:50:39.214Z,2.78
2018-03-26T02:51:39.406Z,2.83
2018-03-26T02:52:38.873Z,2.81
2018-03-26T02:53:39.117Z,2.78
2018-03-26T02:54:39.097Z,2.83
2018-03-26T02:55:39.343Z,2.83
2018-03-26T02:56:39.073Z,2.83
2018-03-26T02:57:39.050Z,2.88
2018-03-26T02:58:39.033Z,2.88
2018-03-26T02:59:39.276Z,2.85
2018-03-26T03:00:39.261Z,2.83
2018-03-26T03:01:38.996Z,2.84
2018-03-26T03:02:38.975Z,2.8
2018-03-26T03:03:38.960Z,2.81
2018-03-26T03:04:39.203Z,2.85
2018-03-26T03:05:38.661Z,2.93
2018-03-26T03:06:39.177Z,2.78
2018-03-26T03:07:38.891Z,2.85
2018-03-26T03:08:39.134Z,2.87
2018-03-26T03:09:38.860Z,2.8
2018-03-26T03:10:39.283Z,2.8
2018-03-26T03:11:38.829Z,2.83
2018-03-26T03:12:38.812Z,2.87
2018-03-26T03:13:38.793Z,2.78
2018-03-26T03:14:38.516Z,2.85
2018-03-26T03:15:38.762Z,2.73
2018-03-26T03:16:38.743Z,2.83
2018-03-26T03:17:38.729Z,2.8
2018-03-26T03:18:38.717Z,2.7
2018-03-26T03:19:38.965Z,2.73
2018-03-26T03:20:38.683Z,2.73
2018-03-26T03:21:38.926Z,2.65
2018-03-26T03:22:38.967Z,2.66
2018-03-26T03:23:38.638Z,2.7
2018-03-26T03:24:38.878Z,2.67
2018-03-26T03:25:38.860Z,2.69
2018-03-26T03:26:38.609Z,2.72
2018-03-26T03:27:38.565Z,2.67
2018-03-26T03:28:38.818Z,2.62
2018-03-26T03:29:38.540Z,2.63
2018-03-26T03:30:38.525Z,2.77
2018-03-26T03:31:38.780Z,2.59
2018-03-26T03:32:38.754Z,2.55
2018-03-26T03:33:38.476Z,2.6
2018-03-26T03:34:38.462Z,2.67
2018-03-26T03:35:38.188Z,2.59
2018-03-26T03:36:38.685Z,2.6
2018-03-26T03:37:38.673Z,2.59
2018-03-26T03:38:38.412Z,2.69
2018-03-26T03:39:38.379Z,2.65
2018-03-26T03:40:38.620Z,2.63
2018-03-26T03:41:38.349Z,2.58
2018-03-26T03:42:38.334Z,2.58
2018-03-26T03:43:38.570Z,2.54
2018-03-26T03:44:38.306Z,2.55
2018-03-26T03:45:38.553Z,2.59
2018-03-26T03:46:38.012Z,2.58
2018-03-26T03:47:38.521Z,2.65
2018-03-26T03:48:37.981Z,2.6
2018-03-26T03:49:38.225Z,2.62
2018-03-26T03:50:38.460Z,2.62
2018-03-26T03:51:37.933Z,2.7
2018-03-26T03:52:38.430Z,2.66
2018-03-26T03:53:38.157Z,2.66
2018-03-26T03:54:38.143Z,2.73
2018-03-26T03:55:38.390Z,2.77
2018-03-26T03:56:37.850Z,2.73
2018-03-26T03:57:38.353Z,2.8
2018-03-26T03:58:37.820Z,2.81
2018-03-26T03:59:38.321Z,2.77
2018-03-26T04:00:38.037Z,2.78
2018-03-26T04:01:37.768Z,2.76
2018-03-26T04:02:38.263Z,2.77
2018-03-26T04:03:37.998Z,2.72
2018-03-26T04:04:37.993Z,2.73
2018-03-26T04:05:37.965Z,2.73
2018-03-26T04:06:37.951Z,2.8
2018-03-26T04:07:37.930Z,2.81
2018-03-26T04:08:37.915Z,2.76
2018-03-26T04:09:37.900Z,2.73
2018-03-26T04:10:37.625Z,2.81
2018-03-26T04:11:38.127Z,2.76
2018-03-26T04:12:38.106Z,2.73
2018-03-26T04:13:38.094Z,2.66
2018-03-26T04:14:37.822Z,2.65
2018-03-26T04:15:37.804Z,2.67
2018-03-26T04:16:37.787Z,2.65
2018-03-26T04:17:37.771Z,2.7
2018-03-26T04:18:37.762Z,2.62
2018-03-26T04:19:37.741Z,2.7
2018-03-26T04:20:37.727Z,2.59
2018-03-26T04:21:37.718Z,2.7
2018-03-26T04:22:37.448Z,2.65
2018-03-26T04:23:37.677Z,2.8
2018-03-26T04:24:37.922Z,2.59
2018-03-26T04:25:37.647Z,2.69
2018-03-26T04:26:37.888Z,2.66
2018-03-26T04:27:37.353Z,2.62
2018-03-26T04:28:37.594Z,2.63
2018-03-26T04:29:37.889Z,2.63
2018-03-26T04:30:37.560Z,2.6
2018-03-26T04:31:37.806Z,2.7
2018-03-26T04:32:37.796Z,2.69
2018-03-26T04:33:37.772Z,2.69
2018-03-26T04:34:37.754Z,2.66
2018-03-26T04:35:37.488Z,2.69
2018-03-26T04:36:37.206Z,2.62
2018-03-26T04:37:37.705Z,2.66
2018-03-26T04:38:37.702Z,2.7
2018-03-26T04:39:37.417Z,2.67
2018-03-26T04:40:37.403Z,2.58
2018-03-26T04:41:37.401Z,2.66
2018-03-26T04:42:37.629Z,2.66
2018-03-26T04:43:37.612Z,2.73
2018-03-26T04:44:37.340Z,2.73
2018-03-26T04:45:37.324Z,2.78
2018-03-26T04:46:37.309Z,2.77
2018-03-26T04:47:37.548Z,2.77
2018-03-26T04:48:37.575Z,2.77
2018-03-26T04:49:36.998Z,2.78
2018-03-26T04:50:37.247Z,2.76
2018-03-26T04:51:37.484Z,2.83
2018-03-26T04:52:37.207Z,2.78
2018-03-26T04:53:37.199Z,2.81
2018-03-26T04:54:37.179Z,2.69
2018-03-26T04:55:37.164Z,2.67
2018-03-26T04:56:36.888Z,2.69
2018-03-26T04:57:37.138Z,2.7
2018-03-26T04:58:37.111Z,2.73
2018-03-26T04:59:37.358Z,2.72
2018-03-26T05:00:37.335Z,2.69
2018-03-26T05:01:37.322Z,2.69
2018-03-26T05:02:37.049Z,2.73
2018-03-26T05:03:37.039Z,2.7
2018-03-26T05:04:37.026Z,2.76
2018-03-26T05:05:37.002Z,2.73
2018-03-26T05:06:37.246Z,2.81
2018-03-26T05:07:37.225Z,2.78
2018-03-26T05:08:36.952Z,2.73
2018-03-26T05:09:36.939Z,2.8
2018-03-26T05:10:36.931Z,2.81
2018-03-26T05:11:37.163Z,2.78
2018-03-26T05:12:36.897Z,2.72
2018-03-26T05:13:36.874Z,2.73
2018-03-26T05:14:36.865Z,2.76
2018-03-26T05:15:36.840Z,2.73
2018-03-26T05:16:37.087Z,2.76
2018-03-26T05:17:36.808Z,2.78
2018-03-26T05:18:36.534Z,2.76
2018-03-26T05:19:37.044Z,2.81
2018-03-26T05:20:37.020Z,2.73
2018-03-26T05:21:37.006Z,2.76
2018-03-26T05:22:36.732Z,2.73
2018-03-26T05:23:36.974Z,2.72
2018-03-26T05:24:36.694Z,2.72
2018-03-26T05:25:36.936Z,2.69
2018-03-26T05:26:36.921Z,2.67
2018-03-26T05:27:36.646Z,2.66
2018-03-26T05:28:36.912Z,2.72
2018-03-26T05:29:36.618Z,2.69
2018-03-26T05:30:36.596Z,2.7
2018-03-26T05:31:36.325Z,2.78
2018-03-26T05:32:36.564Z,2.73
2018-03-26T05:33:36.815Z,2.69
2018-03-26T05:34:36.789Z,2.81
2018-03-26T05:35:36.768Z,2.73
2018-03-26T05:36:36.758Z,2.73
2018-03-26T05:37:36.748Z,2.73
2018-03-26T05:38:36.728Z,2.67
2018-03-26T05:39:36.452Z,2.7
2018-03-26T05:40:36.786Z,2.76
2018-03-26T05:41:36.679Z,2.69
2018-03-26T05:42:36.669Z,2.67
2018-03-26T05:43:36.647Z,2.7
2018-03-26T05:44:36.627Z,2.7
2018-03-26T05:45:36.363Z,2.72
2018-03-26T05:46:36.607Z,2.81
2018-03-26T05:47:36.579Z,2.77
2018-03-26T05:48:36.571Z,2.8
2018-03-26T05:49:36.294Z,2.72
2018-03-26T05:50:36.020Z,2.85
2018-03-26T05:51:36.519Z,2.85
2018-03-26T05:52:36.514Z,2.85
2018-03-26T05:53:36.230Z,2.84
2018-03-26T05:54:36.215Z,2.88
2018-03-26T05:55:36.196Z,2.9
2018-03-26T05:56:36.444Z,2.93
2018-03-26T05:57:36.167Z,2.96
2018-03-26T05:58:36.152Z,3.01
2018-03-26T05:59:36.395Z,2.98
2018-03-26T06:00:36.374Z,2.98
2018-03-26T06:01:36.358Z,2.95
2018-03-26T06:02:36.344Z,3.05
2018-03-26T06:03:36.340Z,3.05
2018-03-26T06:04:36.317Z,3.01
2018-03-26T06:05:36.297Z,3.14
2018-03-26T06:06:36.022Z,3.13
2018-03-26T06:07:36.010Z,3.08
2018-03-26T06:08:35.990Z,3.17
2018-03-26T06:09:35.716Z,3.17
2018-03-26T06:10:35.961Z,3.09
2018-03-26T06:11:36.204Z,3.21
2018-03-26T06:12:36.182Z,3.27
2018-03-26T06:13:35.914Z,3.21
2018-03-26T06:14:35.906Z,3.21
2018-03-26T06:15:36.212Z,3.23
2018-03-26T06:16:36.121Z,3.2
2018-03-26T06:17:35.855Z,3.29
2018-03-26T06:18:36.084Z,3.34
2018-03-26T06:19:36.076Z,3.3
2018-03-26T06:20:35.543Z,3.34
2018-03-26T06:21:35.784Z,3.48
2018-03-26T06:22:35.772Z,3.45
2018-03-26T06:23:36.023Z,3.54
2018-03-26T06:24:35.738Z,3.51
2018-03-26T06:25:35.465Z,3.51
2018-03-26T06:26:35.711Z,3.51
2018-03-26T06:27:35.691Z,3.49
2018-03-26T06:28:35.420Z,3.6
2018-03-26T06:29:35.659Z,3.51
2018-03-26T06:30:36.121Z,3.56
2018-03-26T06:31:35.895Z,3.63
2018-03-26T06:32:35.868Z,3.63
2018-03-26T06:33:35.596Z,3.63
2018-03-26T06:34:35.581Z,3.72
2018-03-26T06:35:35.831Z,3.74
2018-03-26T06:36:35.806Z,3.75
2018-03-26T06:37:35.803Z,3.67
2018-03-26T06:38:35.519Z,3.72
2018-03-26T06:39:35.508Z,3.67
2018-03-26T06:40:35.746Z,3.67
2018-03-26T06:41:35.730Z,3.78
2018-03-26T06:42:35.460Z,3.71
2018-03-26T06:43:35.445Z,3.76
2018-03-26T06:44:35.424Z,3.76
2018-03-26T06:45:35.666Z,3.81
2018-03-26T06:46:35.661Z,3.89
2018-03-26T06:47:35.525Z,3.84
2018-03-26T06:48:35.376Z,3.9
2018-03-26T06:49:35.358Z,3.93
2018-03-26T06:50:35.336Z,3.94
2018-03-26T06:51:35.574Z,3.96
2018-03-26T06:52:35.306Z,4
2018-03-26T06:53:35.552Z,3.99
2018-03-26T06:54:35.534Z,4
2018-03-26T06:55:35.002Z,4
2018-03-26T06:56:35.505Z,4.07
2018-03-26T06:57:35.497Z,4.04
2018-03-26T06:58:35.477Z,4.14
2018-03-26T06:59:35.195Z,4.18
2018-03-26T07:00:35.445Z,4.12
2018-03-26T07:01:34.913Z,4.24
2018-03-26T07:02:35.412Z,4.3
2018-03-26T07:03:35.139Z,4.26
2018-03-26T07:04:34.863Z,4.38
2018-03-26T07:05:34.850Z,4.39
2018-03-26T07:06:35.347Z,4.46
2018-03-26T07:07:34.826Z,4.56
2018-03-26T07:08:35.324Z,4.51
2018-03-26T07:09:35.048Z,4.53
2018-03-26T07:10:35.297Z,4.48
2018-03-26T07:11:35.289Z,4.5
2018-03-26T07:12:35.466Z,4.5
2018-03-26T07:13:35.250Z,4.54
2018-03-26T07:14:35.225Z,4.51
2018-03-26T07:15:34.965Z,4.54
2018-03-26T07:16:35.207Z,4.46
2018-03-26T07:17:35.188Z,4.42
2018-03-26T07:18:35.170Z,4.44
2018-03-26T07:19:34.904Z,4.36
2018-03-26T07:20:34.888Z,4.4
2018-03-26T07:21:34.870Z,4.42
2018-03-26T07:22:34.855Z,4.46
2018-03-26T07:23:34.582Z,4.58
2018-03-26T07:24:35.086Z,4.54
2018-03-26T07:25:34.814Z,4.6
2018-03-26T07:26:34.807Z,4.65
2018-03-26T07:27:34.525Z,4.66
2018-03-26T07:28:35.034Z,4.76
2018-03-26T07:29:34.757Z,4.84
2018-03-26T07:30:34.732Z,4.94
2018-03-26T07:31:34.977Z,5.06
2018-03-26T07:32:34.965Z,5.1
2018-03-26T07:33:34.691Z,5.18
2018-03-26T07:34:34.945Z,5.24
2018-03-26T07:35:34.663Z,5.23
2018-03-26T07:36:34.395Z,5.37
2018-03-26T07:37:34.890Z,5.44
2018-03-26T07:38:34.620Z,5.41
2018-03-26T07:39:34.609Z,5.37
2018-03-26T07:40:34.333Z,5.51
2018-03-26T07:41:34.834Z,5.63
2018-03-26T07:42:34.829Z,5.63
2018-03-26T07:43:34.815Z,5.67
2018-03-26T07:44:34.791Z,5.78
2018-03-26T07:45:34.527Z,5.84
2018-03-26T07:46:34.780Z,5.87
2018-03-26T07:47:34.499Z,5.87
2018-03-26T07:48:34.735Z,6.02
2018-03-26T07:49:34.722Z,5.92
2018-03-26T07:50:34.447Z,5.89
2018-03-26T07:51:34.176Z,5.95
2018-03-26T07:52:34.424Z,5.91
2018-03-26T07:53:34.667Z,5.99
2018-03-26T07:54:34.654Z,5.89
2018-03-26T07:55:34.799Z,5.96
2018-03-26T07:56:34.363Z,5.99
2018-03-26T07:57:34.610Z,6.05
2018-03-26T07:58:34.082Z,6
2018-03-26T07:59:34.326Z,5.95
2018-03-26T08:00:34.632Z,6.05
2018-03-26T08:01:34.565Z,6.15
2018-03-26T08:02:34.288Z,6.06
2018-03-26T08:03:34.272Z,6.17
2018-03-26T08:04:34.517Z,6.14
2018-03-26T08:05:34.508Z,6.1
2018-03-26T08:06:34.230Z,6.17
2018-03-26T08:07:33.958Z,6.2
2018-03-26T08:08:34.198Z,6.15
2018-03-26T08:09:34.445Z,6.17
2018-03-26T08:10:34.182Z,6.28
2018-03-26T08:11:34.418Z,6.26
2018-03-26T08:12:33.893Z,6.24
2018-03-26T08:13:34.390Z,6.26
2018-03-26T08:14:34.126Z,6.4
2018-03-26T08:15:34.371Z,6.36
2018-03-26T08:16:34.095Z,6.47
2018-03-26T08:17:33.819Z,6.44
2018-03-26T08:18:34.125Z,6.49
2018-03-26T08:19:33.793Z,6.54
2018-03-26T08:20:34.296Z,6.67
2018-03-26T08:21:34.032Z,6.64
2018-03-26T08:22:34.016Z,6.83
2018-03-26T08:23:34.264Z,6.85
2018-03-26T08:24:33.992Z,6.93
2018-03-26T08:25:33.975Z,6.88
2018-03-26T08:26:34.224Z,6.9
2018-03-26T08:27:34.212Z,7.03
2018-03-26T08:28:33.683Z,7
2018-03-26T08:29:33.924Z,6.97
2018-03-26T08:30:33.670Z,7.11
2018-03-26T08:31:33.639Z,7.16
2018-03-26T08:32:33.628Z,7.21
2018-03-26T08:33:34.146Z,7.22
2018-03-26T08:34:34.122Z,7.34
2018-03-26T08:35:33.856Z,7.3
2018-03-26T08:36:34.194Z,7.23
2018-03-26T08:37:33.823Z,7.26
2018-03-26T08:38:34.069Z,7.18
2018-03-26T08:39:33.797Z,7.15
2018-03-26T08:40:33.781Z,7.12
2018-03-26T08:41:33.775Z,7.11
2018-03-26T08:42:34.292Z,7.13
2018-03-26T08:43:34.002Z,7.21
2018-03-26T08:44:33.997Z,7.19
2018-03-26T08:45:33.974Z,7.18
2018-03-26T08:46:33.708Z,7.27
2018-03-26T08:47:33.695Z,7.23
2018-03-26T08:48:33.688Z,7.39
2018-03-26T08:49:33.673Z,7.36
2018-03-26T08:50:33.400Z,7.4
2018-03-26T08:51:33.392Z,7.41
2018-03-26T08:52:33.889Z,7.34
2018-03-26T08:53:34.272Z,7.27
2018-03-26T08:54:33.604Z,7.18
2018-03-26T08:55:33.852Z,7.21
2018-03-26T08:56:33.845Z,7.22
2018-03-26T08:57:33.829Z,7.22
2018-03-26T08:58:33.556Z,7.22
2018-03-26T08:59:33.808Z,7.36
2018-03-26T09:00:33.530Z,7.37
2018-03-26T09:01:33.783Z,7.3
2018-03-26T09:02:33.512Z,7.31
2018-03-26T09:03:33.497Z,7.36
2018-03-26T09:04:33.497Z,7.27
2018-03-26T09:05:33.476Z,7.18
2018-03-26T09:06:33.468Z,7.26
2018-03-26T09:07:33.448Z,7.23
2018-03-26T09:08:33.700Z,7.4
2018-03-26T09:09:33.680Z,7.31
2018-03-26T09:10:33.666Z,7.39
2018-03-26T09:11:33.395Z,7.36
2018-03-26T09:12:33.386Z,7.41
2018-03-26T09:13:33.632Z,7.44
2018-03-26T09:14:33.618Z,7.36
2018-03-26T09:15:33.090Z,7.31
2018-03-26T09:16:33.077Z,7.3
2018-03-26T09:17:33.370Z,7.31
2018-03-26T09:18:33.568Z,7.44
2018-03-26T09:19:33.309Z,7.41
2018-03-26T09:20:33.550Z,7.48
2018-03-26T09:21:33.537Z,7.54
2018-03-26T09:22:33.262Z,7.59
2018-03-26T09:23:33.247Z,7.63
2018-03-26T09:24:33.243Z,7.68
2018-03-26T09:25:33.490Z,7.61
2018-03-26T09:26:33.471Z,7.7
2018-03-26T09:27:33.205Z,7.78
2018-03-26T09:28:33.453Z,7.82
2018-03-26T09:29:33.176Z,7.83
2018-03-26T09:30:33.424Z,7.92
2018-03-26T09:31:33.149Z,7.98
2018-03-26T09:32:33.142Z,8.06
2018-03-26T09:33:32.874Z,8.09
2018-03-26T09:34:33.382Z,8.22
2018-03-26T09:35:33.365Z,8.19
2018-03-26T09:36:33.092Z,8.25
2018-03-26T09:37:33.080Z,8.26
2018-03-26T09:38:33.335Z,8.25
2018-03-26T09:39:33.056Z,8.35
2018-03-26T09:40:32.828Z,8.35
2018-03-26T09:41:33.037Z,8.39
2018-03-26T09:42:33.025Z,8.36
2018-03-26T09:43:32.756Z,8.49
2018-03-26T09:44:32.992Z,8.52
2018-03-26T09:45:33.241Z,8.5
2018-03-26T09:46:33.249Z,8.6
2018-03-26T09:47:32.962Z,8.62
2018-03-26T09:48:32.949Z,8.6
2018-03-26T09:49:32.943Z,8.62
2018-03-26T09:50:32.928Z,8.61
2018-03-26T09:51:33.177Z,8.68
2018-03-26T09:52:32.908Z,8.6
2018-03-26T09:53:32.945Z,8.71
2018-03-26T09:54:32.624Z,8.71
2018-03-26T09:55:33.130Z,8.76
2018-03-26T09:56:33.135Z,8.82
2018-03-26T09:57:32.856Z,8.69
2018-03-26T09:58:32.837Z,8.71
2018-03-26T09:59:33.083Z,8.82
2018-03-26T10:00:33.076Z,8.72
2018-03-26T10:01:32.804Z,8.64
2018-03-26T10:02:32.795Z,8.6
2018-03-26T10:03:33.045Z,8.5
2018-03-26T10:04:33.031Z,8.4
2018-03-26T10:05:33.022Z,8.36
2018-03-26T10:06:33.012Z,8.42
2018-03-26T10:07:32.997Z,8.4
2018-03-26T10:08:32.977Z,8.26
2018-03-26T10:09:32.715Z,8.29
2018-03-26T10:10:32.710Z,8.29
2018-03-26T10:11:32.948Z,8.26
2018-03-26T10:12:32.685Z,8.26
2018-03-26T10:13:32.669Z,8.22
2018-03-26T10:14:32.663Z,8.17
2018-03-26T10:15:32.905Z,8.34
2018-03-26T10:16:32.638Z,8.24
2018-03-26T10:17:32.626Z,8.16
2018-03-26T10:18:32.615Z,8.1
2018-03-26T10:19:32.861Z,8.06
2018-03-26T10:20:32.602Z,8.17
2018-03-26T10:21:32.578Z,8.19
2018-03-26T10:22:32.830Z,8.21
2018-03-26T10:23:32.819Z,8.22
2018-03-26T10:24:32.814Z,8.13
2018-03-26T10:25:32.800Z,8.06
2018-03-26T10:26:32.518Z,8.07
2018-03-26T10:27:32.766Z,8.19
2018-03-26T10:28:32.754Z,8.11
2018-03-26T10:29:32.751Z,8.09
2018-03-26T10:30:32.472Z,8.14
2018-03-26T10:31:32.204Z,8.04
2018-03-26T10:32:32.449Z,8.06
2018-03-26T10:33:32.445Z,7.95
2018-03-26T10:34:32.425Z,7.83
2018-03-26T10:35:32.674Z,7.8
2018-03-26T10:36:32.146Z,7.82
2018-03-26T10:37:32.136Z,7.77
2018-03-26T10:38:32.773Z,7.73
2018-03-26T10:39:32.630Z,7.59
2018-03-26T10:40:32.622Z,7.61
2018-03-26T10:41:32.348Z,7.52
2018-03-26T10:42:32.590Z,7.45
2018-03-26T10:43:32.316Z,7.52
2018-03-26T10:44:32.314Z,7.41
2018-03-26T10:45:32.559Z,7.51
2018-03-26T10:46:32.287Z,7.51
2018-03-26T10:47:32.279Z,7.47
2018-03-26T10:48:32.289Z,7.49
2018-03-26T10:49:32.534Z,7.33
2018-03-26T10:50:32.503Z,7.26
2018-03-26T10:51:32.483Z,7.23
2018-03-26T10:52:32.477Z,7.23
2018-03-26T10:53:32.463Z,7.22
2018-03-26T10:54:32.187Z,7.36
2018-03-26T10:55:32.177Z,7.31
2018-03-26T10:56:32.424Z,7.34
2018-03-26T10:57:31.898Z,7.39
2018-03-26T10:58:32.404Z,7.4
2018-03-26T10:59:31.873Z,7.37
2018-03-26T11:00:32.428Z,7.27
2018-03-26T11:01:31.847Z,7.23
2018-03-26T11:02:32.087Z,7.16
2018-03-26T11:03:32.343Z,7.19
2018-03-26T11:04:32.328Z,7.08
2018-03-26T11:05:32.057Z,7.03
2018-03-26T11:06:32.040Z,6.95
2018-03-26T11:07:32.283Z,6.93
2018-03-26T11:08:32.302Z,6.86
2018-03-26T11:09:32.266Z,6.83
2018-03-26T11:10:31.986Z,6.79
2018-03-26T11:11:31.976Z,6.76
2018-03-26T11:12:32.228Z,6.72
2018-03-26T11:13:32.209Z,6.78
2018-03-26T11:14:31.943Z,6.72
2018-03-26T11:15:31.927Z,6.68
2018-03-26T11:16:32.198Z,6.73
2018-03-26T11:17:32.166Z,6.72
2018-03-26T11:18:32.154Z,6.76
2018-03-26T11:19:32.140Z,6.68
2018-03-26T11:20:31.897Z,6.7
2018-03-26T11:21:32.117Z,6.72
2018-03-26T11:22:32.104Z,6.75
2018-03-26T11:23:31.827Z,6.79
2018-03-26T11:24:31.812Z,6.83
2018-03-26T11:25:31.801Z,6.79
2018-03-26T11:26:32.046Z,6.8
2018-03-26T11:27:31.784Z,6.8
2018-03-26T11:28:31.758Z,6.88
2018-03-26T11:29:32.025Z,6.86
2018-03-26T11:30:31.739Z,6.91
2018-03-26T11:31:31.736Z,6.91
2018-03-26T11:32:31.972Z,6.93
2018-03-26T11:33:31.955Z,6.98
2018-03-26T11:34:31.942Z,7.03
2018-03-26T11:35:31.415Z,7.04
2018-03-26T11:36:31.666Z,7.03
2018-03-26T11:37:31.387Z,7.03
2018-03-26T11:38:31.636Z,6.98
2018-03-26T11:39:31.627Z,7.03
2018-03-26T11:40:31.877Z,7.03
2018-03-26T11:41:31.596Z,6.98
2018-03-26T11:42:31.326Z,7.03
2018-03-26T11:43:31.574Z,7.11
2018-03-26T11:44:31.298Z,7.09
2018-03-26T11:45:31.543Z,7.03
2018-03-26T11:46:31.802Z,7
2018-03-26T11:47:31.519Z,7
2018-03-26T11:48:31.763Z,6.98
2018-03-26T11:49:31.552Z,6.9
2018-03-26T11:50:31.746Z,6.83
2018-03-26T11:51:31.733Z,6.76
2018-03-26T11:52:31.197Z,6.76
2018-03-26T11:53:31.455Z,6.64
2018-03-26T11:54:31.436Z,6.6
2018-03-26T11:55:31.160Z,6.62
2018-03-26T11:56:31.408Z,6.6
2018-03-26T11:57:31.658Z,6.64
2018-03-26T11:58:31.642Z,6.68
2018-03-26T11:59:31.378Z,6.72
2018-03-26T12:00:31.357Z,6.67
2018-03-26T12:01:31.342Z,6.79
2018-03-26T12:02:31.331Z,6.83
2018-03-26T12:03:31.317Z,6.8
2018-03-26T12:04:31.044Z,6.88
2018-03-26T12:05:31.548Z,6.85
2018-03-26T12:06:31.283Z,7.08
2018-03-26T12:07:31.264Z,7.01
2018-03-26T12:08:31.510Z,7
2018-03-26T12:09:31.238Z,7.05
2018-03-26T12:10:31.230Z,7.04
2018-03-26T12:11:31.468Z,7.04
2018-03-26T12:12:31.456Z,6.95
2018-03-26T12:13:31.186Z,6.88
2018-03-26T12:14:31.433Z,6.85
2018-03-26T12:15:30.907Z,6.78
2018-03-26T12:16:31.405Z,6.8
2018-03-26T12:17:31.396Z,6.64
2018-03-26T12:18:31.120Z,6.72
2018-03-26T12:19:30.849Z,6.72
2018-03-26T12:20:30.841Z,6.6
2018-03-26T12:21:30.827Z,6.58
2018-03-26T12:22:31.110Z,6.73
2018-03-26T12:23:31.065Z,6.61
2018-03-26T12:24:31.046Z,6.64
2018-03-26T12:25:31.293Z,6.67
2018-03-26T12:26:31.019Z,6.76
2018-03-26T12:27:31.269Z,6.83
2018-03-26T12:28:31.254Z,6.88
2018-03-26T12:29:30.723Z,6.79
2018-03-26T12:30:31.225Z,6.8
2018-03-26T12:31:30.959Z,6.88
2018-03-26T12:32:31.282Z,6.94
2018-03-26T12:33:31.186Z,6.85
2018-03-26T12:34:31.178Z,6.86
2018-03-26T12:35:31.164Z,6.83
2018-03-26T12:36:31.150Z,6.82
2018-03-26T12:37:31.129Z,6.83
2018-03-26T12:38:30.861Z,6.7
2018-03-26T12:39:30.595Z,6.58
2018-03-26T12:40:30.580Z,6.58
2018-03-26T12:41:30.825Z,6.57
2018-03-26T12:42:30.813Z,6.44
2018-03-26T12:43:31.060Z,6.4
2018-03-26T12:44:31.042Z,6.31
2018-03-26T12:45:30.780Z,6.17
2018-03-26T12:46:31.017Z,6.09
2018-03-26T12:47:30.746Z,6.05
2018-03-26T12:48:30.475Z,6.06
2018-03-26T12:49:30.980Z,5.98
2018-03-26T12:50:30.711Z,5.88
2018-03-26T12:51:30.953Z,5.88
2018-03-26T12:52:30.679Z,5.89
2018-03-26T12:53:30.675Z,5.89
2018-03-26T12:54:30.656Z,5.91
2018-03-26T12:55:30.384Z,5.87
2018-03-26T12:56:30.626Z,5.88
2018-03-26T12:57:30.873Z,5.91
2018-03-26T12:58:30.869Z,5.88
2018-03-26T12:59:30.593Z,5.91
2018-03-26T13:00:30.840Z,5.89
2018-03-26T13:01:30.819Z,5.98
2018-03-26T13:02:30.290Z,5.89
2018-03-26T13:03:30.537Z,5.84
2018-03-26T13:04:30.517Z,5.75
2018-03-26T13:05:30.763Z,5.81
2018-03-26T13:06:30.495Z,5.8
2018-03-26T13:07:30.750Z,5.89
2018-03-26T13:08:30.719Z,5.87
2018-03-26T13:09:30.191Z,5.85
2018-03-26T13:10:30.687Z,5.85
2018-03-26T13:11:30.683Z,5.91
2018-03-26T13:12:30.666Z,5.96
2018-03-26T13:13:30.392Z,5.99
2018-03-26T13:14:30.126Z,6.02
2018-03-26T13:15:30.628Z,5.98
2018-03-26T13:16:30.630Z,5.99
2018-03-26T13:17:30.595Z,6
2018-03-26T13:18:30.327Z,5.95
2018-03-26T13:19:30.573Z,5.89
2018-03-26T13:20:30.565Z,5.87
2018-03-26T13:21:30.297Z,5.92
2018-03-26T13:22:30.529Z,5.88